createdAt,value
2022-10-31T00:04:30.430Z,13.78
2022-10-31T00:09:53.578Z,13.78
2022-10-31T00:15:18.024Z,13.75
2022-10-31T00:20:41.250Z,13.70
2022-10-31T00:26:05.965Z,13.63
2022-10-31T00:31:30.790Z,13.67
2022-10-31T00:36:53.842Z,13.68
2022-10-31T00:42:16.938Z,13.58
2022-10-31T00:47:42.943Z,13.49
2022-10-31T00:53:06.035Z,13.47
2022-10-31T00:58:29.160Z,13.47
2022-10-31T01:03:53.632Z,13.41
2022-10-31T01:09:16.743Z,13.38
2022-10-31T01:14:39.833Z,13.32
2022-10-31T01:20:05.477Z,13.31
2022-10-31T01:25:28.571Z,13.25
2022-10-31T01:30:51.611Z,13.24
2022-10-31T01:36:19.092Z,13.18
2022-10-31T01:41:44.195Z,13.16
2022-10-31T01:47:09.021Z,13.18
2022-10-31T01:52:35.488Z,13.14
2022-10-31T01:58:02.367Z,13.15
2022-10-31T02:03:26.028Z,13.14
2022-10-31T02:08:50.410Z,13.13
2022-10-31T02:14:13.535Z,13.11
2022-10-31T02:19:42.577Z,13.10
2022-10-31T02:25:25.091Z,13.03
2022-10-31T02:31:05.265Z,13.01
2022-10-31T02:36:31.464Z,12.93
2022-10-31T02:42:03.956Z,12.88
2022-10-31T02:47:31.165Z,12.85
2022-10-31T02:52:54.764Z,12.81
2022-10-31T02:58:24.049Z,12.86
2022-10-31T03:04:03.442Z,12.84
2022-10-31T03:09:29.866Z,12.81
2022-10-31T03:14:56.145Z,12.76
2022-10-31T03:20:22.370Z,12.71
2022-10-31T03:25:46.100Z,12.70
2022-10-31T03:31:09.985Z,12.66
2022-10-31T03:36:39.791Z,12.53
2022-10-31T03:42:07.329Z,12.56
2022-10-31T03:47:31.032Z,12.53
2022-10-31T03:52:57.585Z,12.38
2022-10-31T03:58:24.041Z,12.34
2022-10-31T04:03:47.638Z,12.40
2022-10-31T04:09:12.882Z,12.44
2022-10-31T04:14:40.530Z,12.42
2022-10-31T04:20:04.878Z,12.38
2022-10-31T04:25:29.622Z,12.31
2022-10-31T04:30:53.161Z,12.15
2022-10-31T04:36:16.260Z,12.19
2022-10-31T04:41:40.862Z,12.10
2022-10-31T04:47:12.849Z,12.09
2022-10-31T04:52:41.143Z,12.10
2022-10-31T04:58:06.698Z,12.08
2022-10-31T05:03:30.155Z,12.05
2022-10-31T05:08:53.528Z,11.99
2022-10-31T05:14:18.162Z,11.93
2022-10-31T05:20:07.806Z,11.94
2022-10-31T05:25:51.107Z,12.05
2022-10-31T05:31:15.805Z,12.11
2022-10-31T05:36:39.141Z,12.09
2022-10-31T05:42:18.467Z,11.98
2022-10-31T05:47:42.945Z,12.01
2022-10-31T05:53:24.775Z,11.98
2022-10-31T05:58:47.979Z,11.95
2022-10-31T06:04:12.529Z,11.97
2022-10-31T06:09:35.691Z,11.99
2022-10-31T06:14:58.921Z,11.98
2022-10-31T06:20:23.423Z,12.00
2022-10-31T06:25:57.858Z,12.00
2022-10-31T06:31:20.936Z,11.87
2022-10-31T06:36:45.450Z,11.97
2022-10-31T06:42:09.339Z,11.84
2022-10-31T06:47:35.316Z,11.99
2022-10-31T06:58:38.227Z,12.08
2022-10-31T07:04:03.987Z,12.16
2022-10-31T07:09:32.294Z,12.22
2022-10-31T07:14:59.123Z,12.20
2022-10-31T07:20:22.279Z,12.20
2022-10-31T07:25:47.581Z,12.25
2022-10-31T07:31:15.487Z,12.32
2022-10-31T07:36:38.696Z,12.37
2022-10-31T07:42:05.601Z,12.43
2022-10-31T07:47:29.664Z,12.48
2022-10-31T07:53:12.550Z,12.57
2022-10-31T07:59:07.389Z,12.68
2022-10-31T08:04:31.270Z,12.77
2022-10-31T08:10:12.690Z,12.98
2022-10-31T08:15:40.774Z,12.97
2022-10-31T08:21:04.980Z,13.03
2022-10-31T08:26:28.113Z,13.18
2022-10-31T08:31:54.074Z,13.24
2022-10-31T08:37:43.387Z,13.38
2022-10-31T08:43:08.033Z,13.42
2022-10-31T08:48:33.028Z,13.50
2022-10-31T08:53:57.748Z,13.67
2022-10-31T08:59:29.524Z,13.85
2022-10-31T09:05:34.329Z,13.98
2022-10-31T09:10:58.317Z,13.91
2022-10-31T09:16:41.317Z,14.07
2022-10-31T09:22:12.609Z,14.13
2022-10-31T09:27:36.151Z,14.31
2022-10-31T09:33:00.396Z,14.48
2022-10-31T09:38:24.973Z,14.62
2022-10-31T09:43:54.165Z,14.73
2022-10-31T09:49:33.464Z,14.57
2022-10-31T09:55:00.745Z,14.79
2022-10-31T10:00:24.571Z,15.00
2022-10-31T10:05:53.417Z,15.23
2022-10-31T10:11:38.272Z,15.40
2022-10-31T10:17:22.552Z,15.84
2022-10-31T10:22:53.460Z,15.91
2022-10-31T10:28:22.659Z,15.72
2022-10-31T10:33:53.138Z,15.78
2022-10-31T10:39:18.943Z,15.79
2022-10-31T10:45:05.738Z,15.79
2022-10-31T10:50:56.174Z,16.02
2022-10-31T10:56:20.458Z,16.20
2022-10-31T11:01:45.531Z,16.57
2022-10-31T11:07:11.008Z,16.70
2022-10-31T11:12:35.543Z,16.73
2022-10-31T11:18:02.813Z,16.49
2022-10-31T11:23:33.480Z,16.94
2022-10-31T11:29:00.831Z,17.36
2022-10-31T11:34:30.921Z,17.94
2022-10-31T11:39:55.945Z,17.75
2022-10-31T11:45:21.134Z,17.50
2022-10-31T11:50:51.267Z,17.28
2022-10-31T11:56:16.019Z,16.92
2022-10-31T12:01:45.002Z,16.61
2022-10-31T12:07:09.995Z,16.66
2022-10-31T12:13:03.125Z,16.72
2022-10-31T12:18:39.153Z,16.73
2022-10-31T12:24:13.089Z,17.06
2022-10-31T12:29:50.416Z,17.19
2022-10-31T12:35:27.615Z,17.27
2022-10-31T12:41:07.515Z,16.98
2022-10-31T12:46:43.268Z,17.02
2022-10-31T12:52:16.409Z,17.07
2022-10-31T12:57:44.576Z,17.10
2022-10-31T13:03:25.469Z,17.08
2022-10-31T13:08:51.964Z,17.07
2022-10-31T13:14:23.111Z,17.12
2022-10-31T13:19:47.188Z,17.16
2022-10-31T13:25:14.051Z,17.19
2022-10-31T13:30:40.475Z,17.37
2022-10-31T13:36:13.227Z,17.62
2022-10-31T13:41:44.727Z,17.84
2022-10-31T13:47:24.146Z,17.61
2022-10-31T13:52:48.649Z,17.66
2022-10-31T13:58:24.451Z,17.65
2022-10-31T14:04:06.261Z,17.62
2022-10-31T14:09:35.211Z,17.59
2022-10-31T14:15:01.553Z,17.50
2022-10-31T14:20:34.549Z,17.39
2022-10-31T14:26:33.766Z,17.22
2022-10-31T14:31:59.619Z,17.14
2022-10-31T14:37:43.054Z,17.08
2022-10-31T14:43:28.492Z,16.85
2022-10-31T14:49:25.768Z,16.87
2022-10-31T14:54:56.037Z,16.76
2022-10-31T15:00:21.186Z,16.52
2022-10-31T15:05:49.254Z,16.40
2022-10-31T15:11:15.686Z,16.26
2022-10-31T15:16:41.840Z,16.18
2022-10-31T15:22:07.115Z,16.03
2022-10-31T15:27:42.115Z,15.93
2022-10-31T15:33:08.082Z,15.97
2022-10-31T15:38:31.662Z,15.86
2022-10-31T15:43:56.626Z,15.83
2022-10-31T15:49:31.880Z,15.74
2022-10-31T15:54:58.750Z,15.68
2022-10-31T16:00:31.891Z,15.72
2022-10-31T16:05:56.722Z,15.57
2022-10-31T16:11:24.893Z,15.62
2022-10-31T16:16:52.976Z,15.51
2022-10-31T16:22:22.871Z,15.58
2022-10-31T16:27:54.273Z,15.49
2022-10-31T16:33:29.824Z,15.51
2022-10-31T16:38:52.832Z,15.50
2022-10-31T16:44:21.961Z,15.53
2022-10-31T16:49:49.520Z,15.49
2022-10-31T16:55:14.261Z,15.47
2022-10-31T17:00:38.204Z,15.47
2022-10-31T17:06:02.675Z,15.48
2022-10-31T17:11:27.575Z,15.44
2022-10-31T17:16:50.700Z,15.39
2022-10-31T17:22:16.290Z,15.38
2022-10-31T17:27:42.194Z,15.40
2022-10-31T17:33:06.615Z,15.32
2022-10-31T17:38:31.081Z,15.36
2022-10-31T17:43:56.395Z,15.35
2022-10-31T17:49:19.497Z,15.29
2022-10-31T17:54:43.890Z,15.22
2022-10-31T18:00:09.464Z,15.24
2022-10-31T18:05:34.506Z,15.19
2022-10-31T18:11:00.063Z,14.99
2022-10-31T18:16:23.189Z,14.93
2022-10-31T18:21:46.727Z,14.75
2022-10-31T18:27:11.114Z,14.94
2022-10-31T18:32:34.554Z,14.94
2022-10-31T18:38:00.674Z,14.85
2022-10-31T18:43:27.820Z,14.77
2022-10-31T18:48:51.078Z,14.73
2022-10-31T18:54:14.274Z,14.78
2022-10-31T18:59:38.695Z,14.68
2022-10-31T19:05:01.761Z,14.68
2022-10-31T19:10:24.865Z,14.64
2022-10-31T19:15:49.243Z,14.65
2022-10-31T19:21:14.142Z,14.50
2022-10-31T19:26:37.205Z,14.65
2022-10-31T19:32:01.604Z,14.62
2022-10-31T19:37:24.724Z,14.76
2022-10-31T19:42:47.998Z,14.75
2022-10-31T19:48:12.443Z,14.82
2022-10-31T19:53:35.997Z,14.89
2022-10-31T19:59:00.531Z,14.91
2022-10-31T20:04:25.050Z,15.00
2022-10-31T20:09:48.263Z,15.02
2022-10-31T20:15:11.548Z,15.05
2022-10-31T20:20:35.933Z,15.06
2022-10-31T20:25:59.040Z,14.98
2022-10-31T20:31:23.648Z,15.06
2022-10-31T20:36:48.308Z,14.98
2022-10-31T20:42:11.343Z,15.02
2022-10-31T20:47:34.381Z,14.88
2022-10-31T20:52:59.040Z,14.98
2022-10-31T20:58:22.245Z,15.02
2022-10-31T21:03:45.720Z,15.02
2022-10-31T21:09:10.232Z,14.93
2022-10-31T21:14:33.378Z,15.01
2022-10-31T21:19:58.664Z,14.99
2022-10-31T21:25:23.125Z,14.97
2022-10-31T21:30:48.225Z,15.15
2022-10-31T21:36:12.441Z,15.16
2022-10-31T21:41:37.112Z,15.14
2022-10-31T21:47:00.146Z,15.28
2022-10-31T21:52:23.179Z,15.30
2022-10-31T21:57:47.617Z,15.30
2022-10-31T22:03:10.671Z,15.35
2022-10-31T22:08:33.965Z,15.39
2022-10-31T22:14:00.570Z,15.36
2022-10-31T22:19:23.629Z,15.40
2022-10-31T22:24:46.762Z,15.50
2022-10-31T22:30:12.510Z,15.36
2022-10-31T22:35:35.606Z,15.43
2022-10-31T22:41:00.769Z,15.31
2022-10-31T22:46:28.962Z,15.29
2022-10-31T22:51:52.276Z,15.35
2022-10-31T22:57:15.262Z,15.42
2022-10-31T23:02:39.669Z,15.46
2022-10-31T23:08:03.028Z,15.57
2022-10-31T23:13:44.074Z,15.56
2022-10-31T23:19:09.210Z,15.59
2022-10-31T23:24:34.590Z,15.57
2022-10-31T23:29:59.304Z,15.37
2022-10-31T23:35:24.827Z,15.38
2022-10-31T23:40:47.919Z,15.39
2022-10-31T23:46:10.982Z,15.20
2022-10-31T23:51:35.341Z,15.36
2022-10-31T23:56:59.049Z,15.21
